createdAt,value
2017-08-31T00:02:02.711Z,23.70
2017-08-31T00:04:31.074Z,31.77
2017-08-31T00:06:58.681Z,20.93
2017-08-31T00:09:26.254Z,24.83
2017-08-31T00:11:53.862Z,25.20
2017-08-31T00:14:21.499Z,34.23
2017-08-31T00:16:49.127Z,26.90
2017-08-31T00:19:16.711Z,20.63
2017-08-31T00:21:44.562Z,25.57
2017-08-31T00:24:12.179Z,30.33
2017-08-31T00:26:39.807Z,28.43
2017-08-31T00:29:07.465Z,30.60
2017-08-31T00:31:35.113Z,29.17
2017-08-31T00:34:02.729Z,29.67
2017-08-31T00:36:30.346Z,27.80
2017-08-31T00:38:57.947Z,34.03
2017-08-31T00:41:25.617Z,35.23
2017-08-31T00:43:53.214Z,37.97
2017-08-31T00:46:20.886Z,26.03
2017-08-31T00:48:48.484Z,25.37
2017-08-31T00:51:16.116Z,31.23
2017-08-31T00:53:43.784Z,16.53
2017-08-31T00:56:11.477Z,31.13
2017-08-31T00:58:39.122Z,22.10
2017-08-31T01:01:06.761Z,25.50
2017-08-31T01:03:34.385Z,18.33
2017-08-31T01:06:02.025Z,20.80
2017-08-31T01:08:29.647Z,17.20
2017-08-31T01:10:57.264Z,13.67
2017-08-31T01:13:24.868Z,12.00
2017-08-31T01:15:52.502Z,15.17
2017-08-31T01:18:20.162Z,15.53
2017-08-31T01:20:47.761Z,12.67
2017-08-31T01:23:15.395Z,12.63
2017-08-31T01:25:43.066Z,16.23
2017-08-31T01:28:10.743Z,8.80
2017-08-31T01:30:38.363Z,11.10
2017-08-31T01:33:06.038Z,14.07
2017-08-31T01:35:33.763Z,18.30
2017-08-31T01:38:01.437Z,17.57
2017-08-31T01:40:29.082Z,13.17
2017-08-31T01:42:56.908Z,12.73
2017-08-31T01:45:24.586Z,13.60
2017-08-31T01:47:52.213Z,13.73
2017-08-31T01:50:19.795Z,15.63
2017-08-31T01:52:47.402Z,12.47
2017-08-31T01:55:15.015Z,13.93
2017-08-31T01:57:42.617Z,11.70
2017-08-31T02:03:03.478Z,13.37
2017-08-31T02:05:31.056Z,16.33
2017-08-31T02:07:58.656Z,11.43
2017-08-31T02:10:26.302Z,13.70
2017-08-31T02:12:53.977Z,16.00
2017-08-31T02:15:21.593Z,8.83
2017-08-31T02:17:49.232Z,13.00
2017-08-31T02:20:16.837Z,13.33
2017-08-31T02:22:44.443Z,12.73
2017-08-31T02:25:12.059Z,13.57
2017-08-31T02:27:40.532Z,16.67
2017-08-31T02:30:08.148Z,10.00
2017-08-31T02:32:35.783Z,10.30
2017-08-31T02:35:03.453Z,9.80
2017-08-31T02:37:31.067Z,9.00
2017-08-31T02:39:58.672Z,10.90
2017-08-31T02:42:26.318Z,10.40
2017-08-31T02:44:53.993Z,9.43
2017-08-31T02:47:21.609Z,9.00
2017-08-31T02:49:49.220Z,10.93
2017-08-31T02:52:16.882Z,7.87
2017-08-31T02:54:44.467Z,9.20
2017-08-31T02:57:12.067Z,8.83
2017-08-31T02:59:39.687Z,10.10
2017-08-31T03:02:07.376Z,9.17
2017-08-31T03:04:34.964Z,9.00
2017-08-31T03:07:02.637Z,5.20
2017-08-31T03:09:30.250Z,13.93
2017-08-31T03:12:00.864Z,8.83
2017-08-31T03:14:28.463Z,6.70
2017-08-31T03:16:56.100Z,8.43
2017-08-31T03:19:23.766Z,13.13
2017-08-31T03:21:51.458Z,5.77
2017-08-31T03:24:19.073Z,8.57
2017-08-31T03:26:46.715Z,7.37
2017-08-31T03:29:14.698Z,5.90
2017-08-31T03:31:42.457Z,5.80
2017-08-31T03:34:10.107Z,13.43
2017-08-31T03:36:37.764Z,9.20
2017-08-31T03:39:06.176Z,5.77
2017-08-31T03:41:33.834Z,7.17
2017-08-31T03:44:01.467Z,9.00
